createdAt,value
2023-04-22T00:02:09.744Z,10.50
2023-04-22T00:04:37.484Z,10.40
2023-04-22T00:07:04.980Z,10.40
2023-04-22T00:09:32.127Z,10.40
2023-04-22T00:11:59.254Z,10.40
2023-04-22T00:14:26.282Z,10.50
2023-04-22T00:16:53.460Z,10.30
2023-04-22T00:19:22.266Z,10.30
2023-04-22T00:21:49.648Z,10.30
2023-04-22T00:24:16.802Z,10.20
2023-04-22T00:26:44.209Z,10.20
2023-04-22T00:29:11.351Z,10.20
2023-04-22T00:31:38.682Z,10.20
2023-04-22T00:34:06.982Z,10.10
2023-04-22T00:36:34.199Z,10.10
2023-04-22T00:39:01.239Z,10.10
2023-04-22T00:41:28.846Z,10.10
2023-04-22T00:43:57.458Z,10.10
2023-04-22T00:46:25.802Z,10.20
2023-04-22T00:48:54.365Z,10.10
2023-04-22T00:51:21.512Z,10.10
2023-04-22T00:53:48.618Z,10.00
2023-04-22T00:56:16.352Z,10.00
2023-04-22T00:58:45.007Z,10.00
2023-04-22T01:01:12.711Z,10.00
2023-04-22T01:03:41.215Z,9.90
2023-04-22T01:06:08.605Z,9.90
2023-04-22T01:08:36.475Z,9.80
2023-04-22T01:11:03.507Z,9.90
2023-04-22T01:13:30.798Z,9.90
2023-04-22T01:15:59.915Z,9.80
2023-04-22T01:18:29.256Z,9.80
2023-04-22T01:20:57.716Z,9.90
2023-04-22T01:23:25.138Z,9.90
2023-04-22T01:25:52.747Z,10.00
2023-04-22T01:28:20.393Z,10.00
2023-04-22T01:30:50.184Z,10.00
2023-04-22T01:33:19.278Z,10.00
2023-04-22T01:35:46.541Z,10.00
2023-04-22T01:38:13.880Z,10.00
2023-04-22T01:40:43.857Z,10.10
2023-04-22T01:43:11.150Z,10.20
2023-04-22T01:45:39.367Z,10.00
2023-04-22T01:48:07.381Z,10.00
2023-04-22T01:50:34.666Z,10.00
2023-04-22T01:53:03.201Z,10.00
2023-04-22T01:55:31.206Z,9.90
2023-04-22T01:57:58.254Z,9.80
2023-04-22T02:00:25.261Z,9.80
2023-04-22T02:02:52.520Z,9.80
2023-04-22T02:05:19.591Z,9.80
2023-04-22T02:07:47.948Z,9.90
2023-04-22T02:10:17.111Z,9.80
2023-04-22T02:12:44.565Z,9.80
2023-04-22T02:15:13.964Z,9.80
2023-04-22T02:17:43.325Z,9.70
2023-04-22T02:20:12.565Z,9.60
2023-04-22T02:22:44.060Z,9.60
2023-04-22T02:25:14.468Z,9.70
2023-04-22T02:27:42.753Z,9.60
2023-04-22T02:30:10.746Z,9.60
2023-04-22T02:32:40.417Z,9.50
2023-04-22T02:35:10.356Z,9.60
2023-04-22T02:37:39.077Z,9.60
2023-04-22T02:40:07.622Z,9.60
2023-04-22T02:42:35.719Z,9.70
2023-04-22T02:45:03.100Z,9.50
2023-04-22T02:47:30.170Z,9.30
2023-04-22T02:49:57.134Z,9.30
2023-04-22T02:52:25.699Z,9.20
2023-04-22T02:54:53.586Z,9.20
2023-04-22T02:57:21.096Z,9.20
2023-04-22T02:59:48.303Z,9.30
2023-04-22T03:02:19.038Z,9.40
2023-04-22T03:05:04.804Z,9.40
2023-04-22T03:07:31.915Z,9.50
2023-04-22T03:09:59.716Z,9.60
2023-04-22T03:12:27.821Z,9.60
2023-04-22T03:14:54.867Z,9.60
2023-04-22T03:17:26.239Z,9.60
2023-04-22T03:19:53.449Z,9.60
2023-04-22T03:22:21.594Z,9.60
2023-04-22T03:24:53.468Z,9.50
2023-04-22T03:27:20.593Z,9.60
2023-04-22T03:29:47.542Z,9.50
2023-04-22T03:32:14.928Z,9.50
2023-04-22T03:34:42.510Z,9.50
2023-04-22T03:37:11.809Z,9.40
2023-04-22T03:39:39.242Z,9.40
2023-04-22T03:42:07.477Z,9.40
2023-04-22T03:44:38.027Z,9.40
2023-04-22T03:47:06.633Z,9.40
2023-04-22T03:49:40.852Z,9.40
2023-04-22T03:52:08.613Z,9.40
2023-04-22T03:54:38.447Z,9.40
2023-04-22T03:57:05.584Z,9.50
2023-04-22T03:59:32.572Z,9.40
2023-04-22T04:01:59.715Z,9.40
2023-04-22T04:04:30.705Z,9.40
2023-04-22T04:07:01.295Z,9.30
2023-04-22T04:09:30.798Z,9.30
2023-04-22T04:11:59.722Z,9.30
2023-04-22T04:14:32.252Z,9.30
2023-04-22T04:16:59.374Z,9.40
2023-04-22T04:19:29.849Z,9.50
2023-04-22T04:21:57.168Z,9.40
2023-04-22T04:24:26.487Z,9.50
2023-04-22T04:27:01.970Z,9.30
2023-04-22T04:29:37.795Z,9.20
2023-04-22T04:32:12.989Z,9.20
2023-04-22T04:34:42.718Z,9.20
2023-04-22T04:37:10.433Z,9.20
2023-04-22T04:40:02.092Z,9.20
2023-04-22T04:42:42.765Z,9.20
2023-04-22T04:45:17.202Z,9.20
2023-04-22T04:47:45.337Z,9.30
2023-04-22T04:50:22.123Z,9.30
2023-04-22T04:52:53.020Z,9.30
2023-04-22T04:55:25.905Z,9.40
2023-04-22T04:57:53.426Z,9.40
2023-04-22T05:00:20.675Z,9.40
2023-04-22T05:02:48.957Z,9.40
2023-04-22T05:05:16.222Z,9.50
2023-04-22T05:07:43.952Z,9.60
2023-04-22T05:10:14.461Z,9.60
2023-04-22T05:12:42.061Z,9.60
2023-04-22T05:15:15.754Z,9.60
2023-04-22T05:17:43.294Z,9.70
2023-04-22T05:20:12.004Z,9.70
2023-04-22T05:22:44.969Z,9.80
2023-04-22T05:25:13.560Z,9.90
2023-04-22T05:27:48.934Z,9.90
2023-04-22T05:30:18.443Z,9.90
2023-04-22T05:32:45.613Z,10.00
2023-04-22T05:35:12.721Z,10.10
2023-04-22T05:37:41.777Z,10.20
2023-04-22T05:40:09.324Z,10.30
2023-04-22T05:42:36.491Z,10.40
2023-04-22T05:45:03.681Z,10.50
2023-04-22T05:47:31.014Z,10.70
2023-04-22T05:49:58.503Z,10.80
2023-04-22T05:52:41.305Z,11.00
2023-04-22T05:55:13.617Z,11.10
2023-04-22T05:57:40.538Z,11.20
2023-04-22T06:00:18.244Z,11.30
2023-04-22T06:02:56.809Z,11.30
2023-04-22T06:05:24.161Z,11.30
2023-04-22T06:07:51.498Z,11.40
2023-04-22T06:10:18.451Z,11.40
2023-04-22T06:12:46.494Z,11.50
2023-04-22T06:15:13.567Z,11.60
2023-04-22T06:17:41.493Z,11.80
2023-04-22T06:22:36.053Z,11.90
2023-04-22T06:25:03.304Z,12.00
2023-04-22T06:27:34.320Z,12.10
2023-04-22T06:30:01.725Z,12.30
2023-04-22T06:32:31.257Z,12.40
2023-04-22T06:34:58.224Z,12.50
2023-04-22T06:37:27.114Z,12.60
2023-04-22T06:39:54.385Z,12.70
2023-04-22T06:42:40.476Z,12.90
2023-04-22T06:45:36.557Z,13.00
2023-04-22T06:48:17.298Z,13.10
2023-04-22T06:51:07.082Z,13.10
2023-04-22T06:53:34.301Z,13.40
2023-04-22T06:56:01.308Z,13.50
2023-04-22T06:58:28.548Z,13.70
2023-04-22T07:00:55.745Z,13.90
2023-04-22T07:03:23.218Z,14.10
2023-04-22T07:06:00.684Z,14.20
2023-04-22T07:08:30.336Z,14.30
2023-04-22T07:10:57.972Z,14.60
2023-04-22T07:13:34.905Z,14.90
2023-04-22T07:16:02.184Z,15.10
2023-04-22T07:18:32.112Z,15.30
2023-04-22T07:20:59.065Z,15.50
2023-04-22T07:23:26.096Z,15.40
2023-04-22T07:25:55.859Z,15.60
2023-04-22T07:28:22.787Z,15.70
2023-04-22T07:30:49.769Z,15.80
2023-04-22T07:33:16.744Z,15.80
2023-04-22T07:35:45.058Z,15.90
2023-04-22T07:38:14.027Z,15.90
2023-04-22T07:40:41.863Z,15.90
2023-04-22T07:43:09.158Z,15.90
2023-04-22T07:45:37.781Z,16.00
2023-04-22T07:48:05.021Z,16.10
2023-04-22T07:50:32.236Z,16.30
2023-04-22T07:52:59.209Z,16.40
2023-04-22T07:55:26.174Z,16.60
2023-04-22T07:57:53.447Z,16.70
2023-04-22T08:00:20.661Z,16.60
2023-04-22T08:02:47.962Z,16.70
2023-04-22T08:05:15.051Z,16.70
2023-04-22T08:07:42.813Z,16.60
2023-04-22T08:10:10.320Z,16.80
2023-04-22T08:12:37.552Z,17.00
2023-04-22T08:15:05.081Z,17.00
2023-04-22T08:17:32.104Z,17.20
2023-04-22T08:20:00.202Z,17.40
2023-04-22T08:22:27.626Z,17.40
2023-04-22T08:24:54.612Z,17.50
2023-04-22T08:27:22.320Z,17.70
2023-04-22T08:29:49.580Z,17.80
2023-04-22T08:32:19.100Z,17.90
2023-04-22T08:34:46.800Z,17.80
2023-04-22T08:37:14.303Z,17.90
2023-04-22T08:39:41.412Z,18.10
2023-04-22T08:42:09.643Z,18.10
2023-04-22T08:44:37.756Z,18.30
2023-04-22T08:47:05.761Z,18.40
2023-04-22T08:49:36.867Z,18.60
2023-04-22T08:52:04.501Z,18.60
2023-04-22T08:54:33.350Z,18.70
2023-04-22T08:57:01.689Z,18.70
2023-04-22T08:59:31.716Z,18.80
2023-04-22T09:01:59.866Z,18.70
2023-04-22T09:04:27.029Z,18.80
2023-04-22T09:06:54.040Z,18.80
2023-04-22T09:09:22.011Z,18.70
2023-04-22T09:11:50.273Z,18.90
2023-04-22T09:14:17.704Z,19.10
2023-04-22T09:16:48.646Z,19.40
2023-04-22T09:19:16.164Z,19.60
2023-04-22T09:21:43.329Z,19.50
2023-04-22T09:24:13.643Z,19.60
2023-04-22T09:26:43.065Z,19.70
2023-04-22T09:29:15.538Z,19.70
2023-04-22T09:31:48.211Z,19.60
2023-04-22T09:34:15.646Z,19.40
2023-04-22T09:36:45.722Z,19.50
2023-04-22T09:39:15.207Z,19.70
2023-04-22T09:41:42.322Z,20.00
2023-04-22T09:44:19.190Z,20.20
2023-04-22T09:46:50.512Z,20.20
2023-04-22T09:49:17.897Z,20.40
2023-04-22T09:51:44.834Z,20.20
2023-04-22T09:54:13.580Z,20.30
2023-04-22T09:56:49.502Z,20.10
2023-04-22T09:59:24.414Z,19.80
2023-04-22T10:01:55.168Z,19.20
2023-04-22T10:04:23.498Z,18.80
2023-04-22T10:06:52.967Z,18.60
2023-04-22T10:09:21.457Z,18.60
2023-04-22T10:11:50.868Z,18.80
2023-04-22T10:14:17.850Z,19.00
2023-04-22T10:16:47.322Z,19.10
2023-04-22T10:19:23.233Z,19.10
2023-04-22T10:21:58.613Z,18.80
2023-04-22T10:24:34.287Z,18.70
2023-04-22T10:27:06.663Z,18.50
2023-04-22T10:29:40.119Z,18.30
2023-04-22T10:32:26.125Z,18.40
2023-04-22T10:35:09.359Z,18.20
2023-04-22T10:37:36.664Z,18.00
2023-04-22T10:40:09.649Z,18.00
2023-04-22T10:42:39.093Z,17.90
2023-04-22T10:45:07.725Z,17.80
2023-04-22T10:47:36.906Z,18.00
2023-04-22T10:50:12.701Z,18.10
2023-04-22T10:52:41.419Z,18.30
2023-04-22T10:55:09.105Z,18.60
2023-04-22T10:57:45.624Z,18.50
2023-04-22T11:00:41.870Z,18.40
2023-04-22T11:03:18.577Z,18.70
2023-04-22T11:05:46.201Z,18.90
2023-04-22T11:08:16.754Z,19.10
2023-04-22T11:10:53.900Z,19.20
2023-04-22T11:13:22.357Z,19.60
2023-04-22T11:15:51.363Z,19.70
2023-04-22T11:18:24.432Z,19.60
2023-04-22T11:20:53.757Z,19.30
2023-04-22T11:23:27.361Z,19.20
2023-04-22T11:26:08.750Z,19.30
2023-04-22T11:28:36.588Z,19.40
2023-04-22T11:31:13.979Z,19.50
2023-04-22T11:33:41.402Z,19.50
2023-04-22T11:36:13.505Z,19.80
2023-04-22T11:38:40.526Z,19.90
2023-04-22T11:41:08.484Z,19.70
2023-04-22T11:43:46.700Z,19.50
2023-04-22T11:46:13.973Z,19.20
2023-04-22T11:48:42.521Z,19.10
2023-04-22T11:51:15.696Z,18.90
2023-04-22T11:53:55.122Z,18.70
2023-04-22T11:56:23.202Z,18.60
2023-04-22T11:58:50.276Z,18.50
2023-04-22T12:01:18.160Z,18.40
2023-04-22T12:03:45.337Z,18.20
2023-04-22T12:06:13.662Z,18.20
2023-04-22T12:08:42.619Z,18.10
2023-04-22T12:11:12.588Z,18.10
2023-04-22T12:13:42.580Z,18.00
2023-04-22T12:16:22.722Z,17.80
2023-04-22T12:18:55.913Z,17.80
2023-04-22T12:21:28.608Z,17.90
2023-04-22T12:24:00.758Z,18.10
2023-04-22T12:26:28.381Z,18.30
2023-04-22T12:28:58.195Z,18.50
2023-04-22T12:31:25.932Z,18.70
2023-04-22T12:33:54.915Z,18.70
2023-04-22T12:36:22.336Z,18.70
2023-04-22T12:38:49.949Z,18.60
2023-04-22T12:41:17.173Z,18.40
2023-04-22T12:43:44.293Z,18.20
2023-04-22T12:46:12.665Z,18.20
2023-04-22T12:48:42.881Z,18.00
2023-04-22T12:51:10.173Z,17.70
2023-04-22T12:53:37.319Z,17.40
2023-04-22T12:56:04.624Z,17.20
2023-04-22T12:58:31.647Z,17.10
2023-04-22T13:00:59.663Z,17.00
2023-04-22T13:03:28.876Z,16.90
2023-04-22T13:05:56.263Z,16.70
2023-04-22T13:08:23.281Z,16.60
2023-04-22T13:10:50.276Z,16.40
2023-04-22T13:13:19.247Z,16.30
2023-04-22T13:15:54.411Z,16.40
2023-04-22T13:18:22.974Z,16.50
2023-04-22T13:20:50.782Z,16.60
2023-04-22T13:23:19.839Z,16.50
2023-04-22T13:25:47.816Z,16.60
2023-04-22T13:28:14.882Z,16.50
2023-04-22T13:30:42.388Z,16.40
2023-04-22T13:33:11.168Z,16.30
2023-04-22T13:35:39.574Z,16.20
2023-04-22T13:38:07.261Z,16.20
2023-04-22T13:40:35.931Z,16.50
2023-04-22T13:43:02.997Z,16.50
2023-04-22T13:45:30.319Z,16.30
2023-04-22T13:47:57.636Z,16.30
2023-04-22T13:50:24.874Z,16.30
2023-04-22T13:52:52.374Z,16.40
2023-04-22T13:55:19.455Z,16.50
2023-04-22T13:57:46.781Z,16.50
2023-04-22T14:00:14.060Z,16.70
2023-04-22T14:02:41.262Z,16.70
2023-04-22T14:05:13.281Z,16.50
2023-04-22T14:07:40.309Z,16.40
2023-04-22T14:10:08.676Z,16.40
2023-04-22T14:12:36.944Z,16.50
2023-04-22T14:15:04.315Z,16.60
2023-04-22T14:17:31.562Z,16.60
2023-04-22T14:20:01.857Z,16.50
2023-04-22T14:22:28.817Z,16.60
2023-04-22T14:24:55.791Z,16.70
2023-04-22T14:27:22.771Z,16.70
2023-04-22T14:29:52.480Z,16.60
2023-04-22T14:32:19.944Z,16.80
2023-04-22T14:34:47.714Z,16.80
2023-04-22T14:37:16.202Z,16.90
2023-04-22T14:39:43.176Z,16.90
2023-04-22T14:42:12.374Z,17.00
2023-04-22T14:44:39.334Z,17.10
2023-04-22T14:47:06.296Z,17.00
2023-04-22T14:49:33.453Z,17.00
2023-04-22T14:52:01.630Z,17.10
2023-04-22T14:54:28.620Z,17.00
2023-04-22T14:56:56.167Z,17.10
2023-04-22T14:59:23.125Z,17.00
2023-04-22T15:01:50.659Z,16.90
2023-04-22T15:04:20.266Z,16.80
2023-04-22T15:06:48.603Z,16.80
2023-04-22T15:09:15.567Z,16.70
2023-04-22T15:11:46.839Z,16.70
2023-04-22T15:14:14.436Z,16.80
2023-04-22T15:16:43.714Z,16.80
2023-04-22T15:19:10.941Z,16.80
2023-04-22T15:21:38.090Z,16.90
2023-04-22T15:24:06.260Z,16.90
2023-04-22T15:26:34.267Z,16.90
2023-04-22T15:29:01.256Z,16.80
2023-04-22T15:31:28.428Z,16.70
2023-04-22T15:33:55.577Z,16.60
2023-04-22T15:36:23.679Z,16.50
2023-04-22T15:38:58.575Z,16.50
2023-04-22T15:41:26.393Z,16.40
2023-04-22T15:43:53.762Z,16.40
2023-04-22T15:46:21.853Z,16.20
2023-04-22T15:48:49.446Z,16.10
2023-04-22T15:51:19.554Z,16.00
2023-04-22T15:53:49.496Z,16.00
2023-04-22T15:56:16.889Z,15.80
2023-04-22T15:58:43.947Z,15.60
2023-04-22T16:01:19.224Z,15.30
2023-04-22T16:03:48.262Z,15.00
2023-04-22T16:06:16.621Z,14.60
2023-04-22T16:08:45.372Z,14.40
2023-04-22T16:11:13.801Z,14.30
2023-04-22T16:13:41.195Z,14.40
2023-04-22T16:16:08.877Z,14.40
2023-04-22T16:18:36.177Z,14.40
2023-04-22T16:21:05.604Z,14.40
2023-04-22T16:23:33.686Z,14.30
2023-04-22T16:26:02.743Z,14.20
2023-04-22T16:28:33.390Z,14.20
2023-04-22T16:31:03.869Z,14.40
2023-04-22T16:33:30.919Z,14.70
2023-04-22T16:35:57.920Z,14.80
2023-04-22T16:38:24.936Z,14.80
2023-04-22T16:40:54.290Z,14.90
2023-04-22T16:43:21.680Z,14.90
2023-04-22T16:45:48.950Z,15.00
2023-04-22T16:48:16.551Z,14.80
2023-04-22T16:50:45.095Z,14.50
2023-04-22T16:53:12.181Z,14.20
2023-04-22T16:55:39.247Z,14.00
2023-04-22T16:58:06.313Z,14.00
2023-04-22T17:00:33.515Z,14.00
2023-04-22T17:03:01.113Z,14.00
2023-04-22T17:05:28.229Z,14.10
2023-04-22T17:07:55.886Z,14.00
2023-04-22T17:10:23.227Z,14.00
2023-04-22T17:12:50.391Z,14.00
2023-04-22T17:15:17.417Z,13.90
2023-04-22T17:17:45.629Z,13.80
2023-04-22T17:20:12.702Z,13.80
2023-04-22T17:22:39.728Z,13.70
2023-04-22T17:25:07.502Z,13.70
2023-04-22T17:27:35.784Z,13.70
2023-04-22T17:30:04.465Z,13.60
2023-04-22T17:32:31.561Z,13.30
2023-04-22T17:34:58.862Z,13.40
2023-04-22T17:37:28.374Z,13.20
2023-04-22T17:39:56.410Z,13.10
2023-04-22T17:42:27.208Z,13.10
2023-04-22T17:44:59.418Z,13.20
2023-04-22T17:47:26.856Z,13.20
2023-04-22T17:49:53.796Z,13.10
2023-04-22T17:52:23.239Z,13.10
2023-04-22T17:54:50.594Z,12.90
2023-04-22T17:57:17.691Z,12.80
2023-04-22T17:59:44.726Z,12.80
2023-04-22T18:02:12.363Z,12.60
2023-04-22T18:04:40.372Z,12.60
2023-04-22T18:07:08.024Z,12.50
2023-04-22T18:09:35.198Z,12.50
2023-04-22T18:12:02.281Z,12.60
2023-04-22T18:14:29.212Z,12.60
2023-04-22T18:16:56.379Z,12.60
2023-04-22T18:19:23.819Z,12.50
2023-04-22T18:21:59.693Z,12.50
2023-04-22T18:24:28.137Z,12.50
2023-04-22T18:26:56.781Z,12.70
2023-04-22T18:29:23.751Z,12.70
2023-04-22T18:31:51.181Z,12.50
2023-04-22T18:34:18.292Z,12.50
2023-04-22T18:36:45.483Z,12.60
2023-04-22T18:39:12.506Z,12.60
2023-04-22T18:41:41.928Z,12.70
2023-04-22T18:44:09.101Z,12.70
2023-04-22T18:46:39.255Z,12.60
2023-04-22T18:49:09.863Z,12.50
2023-04-22T18:51:36.905Z,12.50
2023-04-22T18:54:04.235Z,12.40
2023-04-22T18:56:32.944Z,12.40
2023-04-22T18:59:02.501Z,12.30
2023-04-22T19:01:30.663Z,12.10
2023-04-22T19:04:02.052Z,12.10
2023-04-22T19:06:29.384Z,12.00
2023-04-22T19:08:56.972Z,12.00
2023-04-22T19:11:24.759Z,11.90
2023-04-22T19:13:53.610Z,11.80
2023-04-22T19:16:21.191Z,11.80
2023-04-22T19:18:49.067Z,11.70
2023-04-22T19:21:16.249Z,11.70
2023-04-22T19:23:43.492Z,11.70
2023-04-22T19:26:10.514Z,11.80
2023-04-22T19:28:37.493Z,11.70
2023-04-22T19:31:05.312Z,11.80
2023-04-22T19:33:33.938Z,11.70
2023-04-22T19:36:01.786Z,11.60
2023-04-22T19:38:29.037Z,11.70
2023-04-22T19:40:57.186Z,11.60
2023-04-22T19:43:24.405Z,11.70
2023-04-22T19:45:51.671Z,11.50
2023-04-22T19:48:19.563Z,11.70
2023-04-22T19:50:50.521Z,11.50
2023-04-22T19:53:19.119Z,11.50
2023-04-22T19:55:47.080Z,11.60
2023-04-22T19:58:14.370Z,11.40
2023-04-22T20:00:42.855Z,11.30
2023-04-22T20:03:10.814Z,11.30
2023-04-22T20:05:38.218Z,11.20
2023-04-22T20:08:08.546Z,11.20
2023-04-22T20:10:36.524Z,11.10
2023-04-22T20:13:07.358Z,11.10
2023-04-22T20:15:34.530Z,11.10
2023-04-22T20:18:01.807Z,11.00
2023-04-22T20:20:29.237Z,11.10
2023-04-22T20:23:00.691Z,11.20
2023-04-22T20:25:31.124Z,11.40
2023-04-22T20:27:58.708Z,11.30
2023-04-22T20:30:25.839Z,11.30
2023-04-22T20:32:54.536Z,11.40
2023-04-22T20:35:22.476Z,11.50
2023-04-22T20:37:53.200Z,11.50
2023-04-22T20:40:23.368Z,11.40
2023-04-22T20:42:51.695Z,11.30
2023-04-22T20:45:18.837Z,11.20
2023-04-22T20:47:46.503Z,11.20
2023-04-22T20:50:13.576Z,11.10
2023-04-22T20:52:42.606Z,11.00
2023-04-22T20:55:10.014Z,10.90
2023-04-22T20:57:37.740Z,10.90
2023-04-22T21:00:07.378Z,10.90
2023-04-22T21:02:36.312Z,10.90
2023-04-22T21:05:05.404Z,10.80
2023-04-22T21:07:35.221Z,10.80
2023-04-22T21:10:04.152Z,10.80
2023-04-22T21:12:33.554Z,10.80
2023-04-22T21:15:03.507Z,10.80
2023-04-22T21:17:31.806Z,10.80
2023-04-22T21:19:59.395Z,10.80
2023-04-22T21:22:26.849Z,10.80
2023-04-22T21:24:56.275Z,10.90
2023-04-22T21:27:24.448Z,10.90
2023-04-22T21:29:51.574Z,10.90
2023-04-22T21:32:20.431Z,10.90
2023-04-22T21:34:47.554Z,10.90
2023-04-22T21:37:14.932Z,10.80
2023-04-22T21:39:42.141Z,10.80
2023-04-22T21:42:09.216Z,10.80
2023-04-22T21:44:37.738Z,10.90
2023-04-22T21:47:06.785Z,10.80
2023-04-22T21:49:33.815Z,10.70
2023-04-22T21:52:01.209Z,10.80
2023-04-22T21:54:28.265Z,10.70
2023-04-22T21:56:57.694Z,10.70
2023-04-22T21:59:24.847Z,10.70
2023-04-22T22:01:53.312Z,10.60
2023-04-22T22:04:20.750Z,10.60
2023-04-22T22:06:49.005Z,10.60
2023-04-22T22:09:16.036Z,10.60
2023-04-22T22:11:42.974Z,10.60
2023-04-22T22:14:10.047Z,10.70
2023-04-22T22:16:38.432Z,10.70
2023-04-22T22:19:05.583Z,10.60
2023-04-22T22:21:33.368Z,10.60
2023-04-22T22:24:00.458Z,10.60
2023-04-22T22:26:28.044Z,10.60
2023-04-22T22:28:55.358Z,10.60
2023-04-22T22:31:22.302Z,10.70
2023-04-22T22:33:49.339Z,10.70
2023-04-22T22:36:16.441Z,10.70
2023-04-22T22:38:44.873Z,10.70
2023-04-22T22:41:14.636Z,10.70
2023-04-22T22:43:42.256Z,10.70
2023-04-22T22:46:09.319Z,10.80
2023-04-22T22:48:36.931Z,10.70
2023-04-22T22:51:04.112Z,10.80
2023-04-22T22:53:31.073Z,10.80
2023-04-22T22:55:57.950Z,10.80
2023-04-22T22:58:25.148Z,10.90
2023-04-22T23:00:52.434Z,10.80
2023-04-22T23:03:20.056Z,10.70
2023-04-22T23:05:47.330Z,10.50
2023-04-22T23:08:15.081Z,10.30
2023-04-22T23:10:42.071Z,10.50
2023-04-22T23:13:11.321Z,10.30
2023-04-22T23:15:39.242Z,10.20
2023-04-22T23:18:06.605Z,10.30
2023-04-22T23:20:33.882Z,10.30
2023-04-22T23:23:02.687Z,10.30
2023-04-22T23:25:29.865Z,10.30
2023-04-22T23:27:57.154Z,10.40
2023-04-22T23:30:25.507Z,10.40
2023-04-22T23:32:57.015Z,10.40
2023-04-22T23:35:27.288Z,10.50
2023-04-22T23:37:54.898Z,10.50
2023-04-22T23:40:21.756Z,10.50
2023-04-22T23:42:48.747Z,10.50
2023-04-22T23:45:15.780Z,10.60
2023-04-22T23:47:42.772Z,10.60
2023-04-22T23:50:10.446Z,10.70
2023-04-22T23:52:40.750Z,10.70
2023-04-22T23:55:12.991Z,10.70
2023-04-22T23:57:40.051Z,10.70
